Time;durP1;ratioP1;P1;durP2;ratioP2;P2;SDS_P1;SDS_P2;PMS_P1;PMS_P2;Temp;Humidity;BMP_temperature;BMP_pressure;BME280_temperature;BME280_humidity;BME280_pressure;Samples;Min_cycle;Max_cycle;Signal;HPM_P1;HPM_P2
2023/01/22 00:08:18;;;;;;;7.05;2.47;;;-1.50;99.90;;;;;;4989809;28;20557;-85
2023/01/22 00:18:04;;;;;;;6.77;2.90;;;-1.50;99.90;;;;;;4965707;28;20126;-85
2023/01/22 00:21:16;;;;;;;;;;;;;;;;;;;;;
2023/01/22 00:24:12;;;;;;;5.65;2.22;;;-1.50;99.90;;;;;;4963015;28;20038;-85
2023/01/22 00:27:18;;;;;;;;;;;;;;;;;;;;;
2023/01/22 00:33:32;;;;;;;9.33;2.73;;;-1.60;99.90;;;;;;4952733;28;20110;-84
2023/01/22 00:36:53;;;;;;;8.03;2.80;;;-1.50;99.90;;;;;;4988779;28;20121;-84
2023/01/22 00:39:55;;;;;;;7.20;2.07;;;-1.50;99.90;;;;;;5003691;28;20057;-85
2023/01/22 00:42:39;;;;;;;8.23;2.83;;;-1.50;99.90;;;;;;4988263;28;20161;-85
2023/01/22 00:45:34;;;;;;;;;;;;;;;;;;;;;
2023/01/22 00:58:36;;;;;;;7.50;2.27;;;-1.40;99.90;;;;;;4991835;28;20502;-85
2023/01/22 01:01:36;;;;;;;6.50;2.43;;;-1.40;99.90;;;;;;4987866;28;20499;-86
2023/01/22 01:04:37;;;;;;;5.30;1.77;;;-1.40;99.90;;;;;;4999912;28;20133;-86
2023/01/22 01:11:11;;;;;;;8.43;2.60;;;-1.40;99.90;;;;;;4992648;28;20035;-85
2023/01/22 01:14:22;;;;;;;6.97;2.40;;;-1.30;99.90;;;;;;4989517;28;20034;-85
2023/01/22 01:23:18;;;;;;;8.07;1.80;;;-1.40;99.90;;;;;;4988808;28;20110;-85
2023/01/22 01:26:40;;;;;;;6.63;2.63;;;-0.90;99.90;;;;;;5001629;28;20034;-85
2023/01/22 01:37:09;;;;;;;11.20;3.22;;;-1.30;99.90;;;;;;4988355;28;20042;-84
2023/01/22 01:40:35;;;;;;;8.00;2.60;;;-1.00;99.90;;;;;;4969377;28;20505;-85
2023/01/22 01:43:51;;;;;;;;;;;;;;;;;;;;;
2023/01/22 01:50:20;;;;;;;10.77;2.53;;;-1.30;99.90;;;;;;4978690;28;20039;-85
2023/01/22 01:53:41;;;;;;;;;;;;;;;;;;;;;
2023/01/22 01:56:56;;;;;;;8.27;2.30;;;-1.30;99.90;;;;;;4984124;28;20042;-84
2023/01/22 02:00:10;;;;;;;8.43;2.30;;;-1.50;99.90;;;;;;4909986;29;20043;-85
2023/01/22 02:05:51;;;;;;;13.20;3.03;;;-1.30;99.90;;;;;;4885491;29;20036;-85
2023/01/22 02:08:56;;;;;;;;;;;;;;;;;;;;;
2023/01/22 02:12:30;;;;;;;;;;;;;;;;;;;;;
2023/01/22 02:18:52;;;;;;;6.80;2.47;;;-0.70;99.90;;;;;;4968507;28;20039;-85
2023/01/22 02:25:26;;;;;;;;;;;;;;;;;;;;;
2023/01/22 02:31:23;;;;;;;7.73;2.87;;;-1.20;99.90;;;;;;4989123;28;20029;-84
2023/01/22 02:34:36;;;;;;;;;;;;;;;;;;;;;
2023/01/22 02:37:25;;;;;;;5.65;2.33;;;-1.00;99.90;;;;;;4986141;28;20400;-85
2023/01/22 02:40:28;;;;;;;;;;;;;;;;;;;;;
2023/01/22 02:43:51;;;;;;;7.13;2.37;;;-1.20;99.90;;;;;;4985221;28;20030;-85
2023/01/22 02:47:01;;;;;;;6.40;1.98;;;-1.10;99.90;;;;;;4909759;29;20036;-85
2023/01/22 02:50:21;;;;;;;6.73;2.57;;;-1.10;99.90;;;;;;4910228;29;20056;-85
2023/01/22 02:53:39;;;;;;;8.07;2.57;;;-0.60;99.90;;;;;;4987204;28;20483;-85
2023/01/22 02:59:40;;;;;;;6.10;2.50;;;-0.50;99.90;;;;;;4960856;28;20730;-85
2023/01/22 03:22:59;;;;;;;6.40;2.37;;;-1.20;99.90;;;;;;4931374;29;20131;-85
2023/01/22 03:28:57;;;;;;;12.20;3.33;;;-1.30;99.90;;;;;;4991396;28;20041;-85
2023/01/22 03:37:37;;;;;;;8.37;2.67;;;0.90;99.90;;;;;;4993006;28;20034;-85
2023/01/22 03:43:42;;;;;;;7.13;3.00;;;-1.70;99.90;;;;;;4991695;28;20572;-85
2023/01/22 03:46:59;;;;;;;7.40;2.93;;;-0.80;99.90;;;;;;5004394;28;20125;-85
2023/01/22 03:53:02;;;;;;;;;;;;;;;;;;;;;
2023/01/22 03:56:10;;;;;;;9.63;2.97;;;-0.10;99.90;;;;;;4992838;28;20503;-85
2023/01/22 04:02:25;;;;;;;7.80;2.80;;;-1.10;99.90;;;;;;4940529;29;20067;-85
2023/01/22 04:05:50;;;;;;;5.87;2.27;;;-0.90;99.90;;;;;;4983129;28;20521;-85
2023/01/22 04:18:34;;;;;;;7.30;2.45;;;-1.10;99.90;;;;;;4927839;28;20042;-85
2023/01/22 04:21:58;;;;;;;9.50;2.83;;;-1.00;99.90;;;;;;4960359;28;20031;-85
2023/01/22 04:25:19;;;;;;;6.47;2.80;;;-1.10;99.90;;;;;;4871144;29;20704;-85
2023/01/22 04:28:18;;;;;;;8.23;3.07;;;-1.10;99.90;;;;;;4874292;29;20037;-85
2023/01/22 04:35:24;;;;;;;8.23;2.77;;;-1.10;99.90;;;;;;4930363;29;20039;-85
2023/01/22 04:38:38;;;;;;;;;;;;;;;;;;;;;
2023/01/22 04:48:51;;;;;;;;;;;;;;;;;;;;;
2023/01/22 04:52:18;;;;;;;9.37;2.73;;;-1.10;99.90;;;;;;4952213;28;20133;-85
2023/01/22 04:55:20;;;;;;;9.50;2.80;;;-0.50;99.90;;;;;;4940560;28;20071;-85
2023/01/22 04:58:40;;;;;;;8.88;3.25;;;-0.70;99.90;;;;;;4951250;28;20542;-84
2023/01/22 05:01:37;;;;;;;8.33;2.70;;;-0.40;99.90;;;;;;4928352;28;21010;-85
2023/01/22 05:07:48;;;;;;;11.50;3.37;;;0.20;99.90;;;;;;4961339;28;20061;-85
2023/01/22 05:10:44;;;;;;;8.90;2.90;;;-1.30;99.90;;;;;;4985255;28;20035;-85
2023/01/22 05:17:08;;;;;;;7.93;3.40;;;-0.20;99.90;;;;;;4991937;28;20541;-86
2023/01/22 05:20:11;;;;;;;;;;;;;;;;;;;;;
2023/01/22 05:23:13;;;;;;;;;;;;;;;;;;;;;
2023/01/22 05:26:05;;;;;;;9.87;2.93;;;-0.30;99.90;;;;;;5003369;28;20033;-85
2023/01/22 05:35:16;;;;;;;;;;;;;;;;;;;;;
2023/01/22 05:38:18;;;;;;;7.53;3.07;;;-2.20;99.90;;;;;;4991058;28;20034;-86
2023/01/22 05:41:31;;;;;;;7.15;2.45;;;-0.90;99.90;;;;;;4991192;28;20022;-86
2023/01/22 05:44:08;;;;;;;;;;;-1.50;99.90;;;;;;4988676;28;20037;-86
2023/01/22 05:46:50;;;;;;;6.20;2.50;;;-0.50;99.90;;;;;;4987648;28;19937;-86
2023/01/22 05:49:48;;;;;;;8.20;2.73;;;-0.40;99.90;;;;;;4988459;28;20525;-86
2023/01/22 05:52:12;;;;;;;9.43;3.30;;;-0.60;99.90;;;;;;4995291;28;20119;-86
2023/01/22 05:54:38;;;;;;;10.07;2.97;;;-0.80;99.90;;;;;;5007485;28;20058;-86
2023/01/22 05:57:41;;;;;;;8.73;3.17;;;-0.90;99.90;;;;;;4999165;28;20037;-86
2023/01/22 06:00:38;;;;;;;8.23;2.83;;;-0.50;99.90;;;;;;4984653;28;20637;-86
2023/01/22 06:03:57;;;;;;;11.33;3.63;;;-0.10;99.90;;;;;;4963195;28;20038;-85
2023/01/22 06:06:36;;;;;;;7.83;2.63;;;-1.00;99.90;;;;;;4991615;28;20551;-86
2023/01/22 06:09:53;;;;;;;12.00;3.23;;;-0.60;99.90;;;;;;4993447;28;20034;-86
2023/01/22 06:20:16;;;;;;;6.27;2.73;;;-0.60;99.90;;;;;;4929699;28;20042;-86
2023/01/22 06:23:45;;;;;;;10.52;3.08;;;-0.70;99.90;;;;;;4967515;28;20415;-87
2023/01/22 06:26:49;;;;;;;9.13;2.87;;;-0.30;99.90;;;;;;4994779;28;20529;-87
2023/01/22 06:36:33;;;;;;;11.37;3.67;;;-0.30;99.90;;;;;;4987682;28;20378;-86
2023/01/22 06:42:58;;;;;;;9.40;3.23;;;-0.40;99.90;;;;;;4976236;28;20045;-87
2023/01/22 06:45:57;;;;;;;9.00;3.20;;;-0.20;99.90;;;;;;4992402;28;20037;-87
2023/01/22 06:48:45;;;;;;;;;;;;;;;;;;;;;
2023/01/22 06:51:32;;;;;;;8.47;2.83;;;0.70;99.90;;;;;;4998743;28;20038;-87
2023/01/22 06:54:34;;;;;;;10.13;3.43;;;-0.70;99.90;;;;;;4997693;28;20026;-86
2023/01/22 06:57:45;;;;;;;12.18;2.95;;;-0.30;99.90;;;;;;4989652;28;20026;-86
2023/01/22 07:01:10;;;;;;;8.37;2.80;;;-0.20;99.90;;;;;;4995683;28;20057;-86
2023/01/22 07:04:01;;;;;;;8.97;3.23;;;-0.60;99.90;;;;;;4994362;28;20081;-86
2023/01/22 07:07:28;;;;;;;8.27;2.67;;;-0.40;99.90;;;;;;4999759;28;20046;-86
2023/01/22 07:13:43;;;;;;;9.90;3.38;;;0.00;99.90;;;;;;4980271;28;20057;-86
2023/01/22 07:16:44;;;;;;;8.30;3.13;;;1.40;99.90;;;;;;5005812;28;20085;-86
2023/01/22 07:19:52;;;;;;;;;;;;;;;;;;;;;
2023/01/22 07:25:48;;;;;;;;;;;;;;;;;;;;;
2023/01/22 07:28:31;;;;;;;9.47;3.17;;;-0.70;99.90;;;;;;4992726;28;20033;-86
2023/01/22 07:31:37;;;;;;;7.77;2.80;;;0.60;99.90;;;;;;5028017;22;20569;-86
2023/01/22 07:48:01;;;;;;;9.70;2.70;;;-0.30;99.90;;;;;;4897737;29;20020;-86
2023/01/22 07:51:11;;;;;;;7.70;2.90;;;-0.30;99.90;;;;;;4948566;28;20066;-85
2023/01/22 08:07:47;;;;;;;3.90;1.35;;;-0.20;99.90;;;;;;4978533;28;20296;-85
2023/01/22 08:17:03;;;;;;;;;;;;;;;;;;;;;
2023/01/22 08:20:07;;;;;;;22.05;6.50;;;1.40;99.90;;;;;;4997142;28;20028;-86
2023/01/22 08:23:01;;;;;;;18.77;7.03;;;-0.10;99.90;;;;;;4997960;28;20109;-85
2023/01/22 08:29:38;;;;;;;15.20;4.53;;;-0.10;99.90;;;;;;4956792;28;20031;-86
2023/01/22 08:35:43;;;;;;;14.00;4.77;;;0.10;99.90;;;;;;4987684;28;20537;-87
2023/01/22 08:38:49;;;;;;;10.50;4.07;;;1.10;99.90;;;;;;4998674;28;20034;-86
2023/01/22 08:42:06;;;;;;;12.90;4.50;;;-0.10;99.90;;;;;;4990765;28;20026;-85
2023/01/22 08:44:45;;;;;;;14.73;5.37;;;0.00;99.90;;;;;;4997830;28;20046;-85
2023/01/22 08:47:50;;;;;;;12.57;3.97;;;0.70;99.90;;;;;;4994664;28;20026;-85
2023/01/22 08:51:09;;;;;;;11.77;3.43;;;0.00;99.90;;;;;;5008383;28;20061;-86
2023/01/22 08:53:51;;;;;;;9.43;3.67;;;0.80;99.90;;;;;;4990110;28;20033;-85
2023/01/22 08:56:34;;;;;;;9.10;3.28;;;2.10;99.90;;;;;;4991010;28;20073;-85
2023/01/22 09:00:00;;;;;;;9.97;3.20;;;-0.20;99.90;;;;;;4985378;28;20030;-85
2023/01/22 09:02:40;;;;;;;9.80;3.07;;;0.10;99.90;;;;;;4961027;28;20038;-84
2023/01/22 09:05:56;;;;;;;;;;;;;;;;;;;;;
2023/01/22 09:08:33;;;;;;;8.77;3.80;;;1.40;99.90;;;;;;4992199;28;20026;-85
2023/01/22 09:11:17;;;;;;;13.30;4.10;;;0.90;99.90;;;;;;4993975;28;20026;-85
2023/01/22 09:14:01;;;;;;;9.93;3.97;;;0.60;99.90;;;;;;4986259;28;20489;-85
2023/01/22 09:20:31;;;;;;;12.00;3.30;;;1.00;99.90;;;;;;4990239;28;20041;-85
2023/01/22 09:23:31;;;;;;;11.03;4.27;;;0.80;99.90;;;;;;4990903;28;20037;-85
2023/01/22 09:29:04;;;;;;;10.77;3.63;;;1.20;99.90;;;;;;4985392;28;20028;-85
2023/01/22 09:31:49;;;;;;;10.77;4.70;;;1.20;99.90;;;;;;4982602;28;20184;-84
2023/01/22 09:34:36;;;;;;;;;;;;;;;;;;;;;
2023/01/22 09:37:22;;;;;;;8.97;3.73;;;1.40;99.90;;;;;;4989719;28;20037;-85
2023/01/22 09:40:35;;;;;;;11.17;3.83;;;1.40;99.90;;;;;;4986604;28;20040;-84
2023/01/22 09:43:42;;;;;;;9.17;2.93;;;1.50;99.90;;;;;;4987276;28;20104;-85
2023/01/22 09:46:33;;;;;;;11.70;3.83;;;2.00;99.90;;;;;;4987019;28;20036;-84
2023/01/22 09:49:41;;;;;;;12.13;3.70;;;1.80;99.90;;;;;;4988329;28;21324;-84
2023/01/22 09:52:34;;;;;;;11.83;3.63;;;2.10;99.90;;;;;;4950901;28;20410;-84
2023/01/22 09:55:30;;;;;;;10.50;3.28;;;1.20;99.90;;;;;;4984638;28;20042;-85
2023/01/22 10:01:47;;;;;;;12.47;3.40;;;0.20;99.90;;;;;;4921416;28;20044;-85
2023/01/22 10:04:51;;;;;;;10.50;3.20;;;1.40;99.90;;;;;;4959862;28;20051;-85
2023/01/22 10:08:03;;;;;;;10.97;3.97;;;2.20;99.90;;;;;;4994420;28;20030;-85
2023/01/22 10:10:50;;;;;;;10.95;4.07;;;2.40;99.90;;;;;;4990345;28;20029;-84
2023/01/22 10:13:43;;;;;;;14.83;4.60;;;2.90;99.90;;;;;;4987865;28;20042;-85
2023/01/22 10:16:22;;;;;;;11.85;4.18;;;1.90;99.90;;;;;;4983924;28;20525;-85
2023/01/22 10:18:57;;;;;;;9.53;3.50;;;0.80;99.90;;;;;;4989309;28;20026;-84
2023/01/22 10:21:42;;;;;;;11.73;3.63;;;2.20;99.90;;;;;;4992389;28;20057;-85
2023/01/22 10:24:26;;;;;;;10.53;4.27;;;1.70;99.90;;;;;;4992467;28;20030;-85
2023/01/22 10:27:01;;;;;;;8.57;3.10;;;3.20;99.90;;;;;;4987148;28;20057;-85
2023/01/22 10:29:37;;;;;;;11.80;3.47;;;1.40;99.90;;;;;;4992033;28;20410;-85
2023/01/22 10:32:25;;;;;;;12.00;3.27;;;2.10;99.90;;;;;;4990615;28;20027;-85
2023/01/22 10:35:30;;;;;;;8.67;3.27;;;2.70;99.90;;;;;;4992199;28;20037;-86
2023/01/22 10:37:57;;;;;;;9.07;3.07;;;1.50;99.90;;;;;;4990363;28;20118;-84
2023/01/22 10:40:41;;;;;;;14.00;3.57;;;1.30;99.90;;;;;;4994978;28;20035;-85
2023/01/22 10:43:12;;;;;;;13.07;4.10;;;1.40;99.90;;;;;;4986281;28;20475;-85
2023/01/22 10:45:51;;;;;;;10.37;4.07;;;2.80;99.90;;;;;;4998015;28;20057;-85
2023/01/22 10:48:28;;;;;;;9.60;3.80;;;0.80;99.90;;;;;;5010832;28;20093;-85
2023/01/22 10:51:14;;;;;;;9.43;3.10;;;3.10;99.90;;;;;;5009007;28;20023;-85
2023/01/22 10:54:00;;;;;;;10.13;3.97;;;4.20;99.90;;;;;;4991891;28;20030;-85
2023/01/22 10:56:34;;;;;;;10.70;3.43;;;1.10;99.90;;;;;;4992157;28;20038;-85
2023/01/22 10:59:36;;;;;;;7.50;2.80;;;1.70;99.90;;;;;;4992043;28;20035;-85
2023/01/22 11:02:12;;;;;;;10.00;3.07;;;1.60;99.90;;;;;;4931872;29;20043;-85
2023/01/22 11:04:45;;;;;;;12.53;3.47;;;1.70;99.90;;;;;;4975247;28;20089;-84
2023/01/22 11:07:27;;;;;;;8.37;3.13;;;1.70;99.90;;;;;;4983108;28;20038;-84
2023/01/22 11:10:26;;;;;;;9.38;3.08;;;1.70;99.90;;;;;;4991495;28;20088;-84
2023/01/22 11:13:06;;;;;;;10.17;3.07;;;1.70;99.90;;;;;;5006924;28;20090;-83
2023/01/22 11:15:42;;;;;;;9.90;3.10;;;1.80;99.90;;;;;;4990402;28;20061;-83
2023/01/22 11:18:17;;;;;;;10.93;3.03;;;1.80;99.90;;;;;;4990730;28;20026;-85
2023/01/22 11:20:53;;;;;;;9.77;2.90;;;1.70;99.90;;;;;;4994345;28;20034;-83
2023/01/22 11:23:54;;;;;;;7.93;3.13;;;1.70;99.90;;;;;;4989703;28;20077;-83
2023/01/22 11:26:29;;;;;;;10.20;3.03;;;2.30;99.90;;;;;;4992543;28;20030;-84
2023/01/22 11:29:10;;;;;;;9.17;3.07;;;1.80;99.90;;;;;;4991300;28;20197;-84
2023/01/22 11:31:50;;;;;;;8.20;2.87;;;1.80;99.90;;;;;;4986077;28;20459;-84
2023/01/22 11:34:19;;;;;;;7.20;2.27;;;1.80;99.90;;;;;;4992379;28;20026;-84
2023/01/22 11:37:09;;;;;;;8.93;3.20;;;1.70;99.90;;;;;;4986733;28;20037;-83
2023/01/22 11:39:50;;;;;;;7.53;2.50;;;1.40;99.90;;;;;;4982523;28;20034;-83
2023/01/22 11:42:24;;;;;;;8.13;2.70;;;1.60;99.90;;;;;;4988106;28;20035;-84
2023/01/22 11:45:02;;;;;;;6.40;2.57;;;1.60;99.90;;;;;;4985520;28;20092;-84
2023/01/22 11:47:50;;;;;;;6.80;2.47;;;1.70;99.90;;;;;;4999156;28;20054;-84
2023/01/22 11:50:19;;;;;;;8.47;3.23;;;1.70;99.90;;;;;;4991525;28;20018;-84
2023/01/22 11:53:01;;;;;;;7.90;2.70;;;1.70;99.90;;;;;;4992012;28;20591;-84
2023/01/22 11:55:58;;;;;;;7.00;2.78;;;1.50;99.90;;;;;;4986323;28;20018;-85
2023/01/22 11:58:37;;;;;;;7.60;2.70;;;1.60;99.90;;;;;;4991466;28;20104;-84
2023/01/22 12:01:28;;;;;;;8.43;2.77;;;1.50;99.90;;;;;;5008826;28;20030;-84
2023/01/22 12:04:17;;;;;;;7.80;2.67;;;1.80;99.90;;;;;;4991465;28;20482;-84
2023/01/22 12:06:52;;;;;;;9.10;2.87;;;1.80;99.90;;;;;;5006467;28;20018;-85
2023/01/22 12:09:23;;;;;;;7.27;2.53;;;1.80;99.90;;;;;;4997196;28;20028;-84
2023/01/22 12:12:20;;;;;;;11.50;3.38;;;1.90;99.90;;;;;;4976553;28;20038;-85
2023/01/22 12:14:52;;;;;;;9.77;2.77;;;1.70;99.90;;;;;;4987644;28;20485;-87
2023/01/22 12:17:48;;;;;;;9.82;3.25;;;2.00;99.90;;;;;;4987632;28;20037;-85
2023/01/22 12:20:31;;;;;;;9.20;2.87;;;1.80;99.90;;;;;;4976470;28;20031;-85
2023/01/22 12:23:07;;;;;;;10.53;3.13;;;1.80;99.90;;;;;;4972309;28;20058;-86
2023/01/22 12:25:42;;;;;;;13.27;2.90;;;1.80;99.90;;;;;;4982668;28;20042;-85
2023/01/22 12:28:16;;;;;;;8.13;2.20;;;1.80;99.90;;;;;;4979019;28;20034;-85
2023/01/22 12:30:53;;;;;;;6.77;2.17;;;1.80;99.90;;;;;;4986910;28;20062;-84
2023/01/22 12:33:26;;;;;;;6.73;3.40;;;1.80;99.90;;;;;;4986048;28;20035;-84
2023/01/22 12:35:55;;;;;;;7.57;2.93;;;1.80;99.90;;;;;;4982982;28;20034;-84
2023/01/22 12:38:33;;;;;;;8.90;3.33;;;2.20;99.90;;;;;;4999636;28;20034;-84
2023/01/22 12:41:24;;;;;;;10.87;3.47;;;1.80;99.90;;;;;;4977540;28;20471;-84
2023/01/22 12:43:55;;;;;;;9.40;3.20;;;2.00;99.90;;;;;;4980658;28;20521;-85
2023/01/22 12:46:25;;;;;;;;;;;1.80;99.90;;;;;;4984273;28;20081;-85
2023/01/22 12:49:03;;;;;;;7.60;2.20;;;1.80;99.90;;;;;;4986666;28;19914;-85
2023/01/22 12:51:38;;;;;;;7.83;2.70;;;1.80;99.90;;;;;;4980327;28;20030;-84
2023/01/22 12:54:43;;;;;;;6.00;1.90;;;1.80;99.90;;;;;;4981391;28;20033;-84
2023/01/22 12:57:28;;;;;;;8.17;2.77;;;2.10;99.90;;;;;;4979350;28;20869;-85
2023/01/22 13:00:10;;;;;;;7.20;2.10;;;2.60;99.90;;;;;;4986825;28;20090;-84
2023/01/22 13:07:14;;;;;;;9.27;2.57;;;1.50;99.90;;;;;;4987222;28;19973;-86
2023/01/22 13:09:59;;;;;;;10.30;3.17;;;1.60;99.90;;;;;;4945936;28;20066;-85
2023/01/22 13:13:09;;;;;;;14.00;4.37;;;1.70;99.90;;;;;;4990675;28;20108;-86
2023/01/22 13:16:09;;;;;;;9.77;2.90;;;1.70;99.90;;;;;;4988119;28;20121;-86
2023/01/22 13:18:52;;;;;;;11.50;3.27;;;1.90;99.90;;;;;;4990055;28;20034;-86
2023/01/22 13:21:53;;;;;;;10.40;2.90;;;2.00;99.90;;;;;;4989897;28;20479;-85
2023/01/22 13:25:07;;;;;;;6.53;2.43;;;0.90;99.90;;;;;;4964410;28;20454;-86
2023/01/22 13:27:56;;;;;;;;;;;1.60;99.90;;;;;;4989819;28;20034;-86
2023/01/22 13:30:35;;;;;;;6.93;3.40;;;1.80;99.90;;;;;;4990231;28;20418;-85
2023/01/22 13:33:04;;;;;;;8.67;2.63;;;1.60;99.90;;;;;;4990610;28;20108;-86
2023/01/22 13:36:10;;;;;;;7.60;2.50;;;1.80;99.90;;;;;;4986018;28;20045;-85
2023/01/22 13:39:18;;;;;;;9.00;3.10;;;2.70;99.90;;;;;;4986863;28;20117;-85
2023/01/22 13:43:23;;;;;;;;;;;;;;;;;;;;;
2023/01/22 13:46:13;;;;;;;;;;;;;;;;;;;;;
2023/01/22 13:49:32;;;;;;;5.73;2.27;;;1.10;99.90;;;;;;4949818;28;20039;-87
2023/01/22 13:52:33;;;;;;;10.50;2.40;;;1.30;99.90;;;;;;4934707;28;20059;-86
2023/01/22 13:55:16;;;;;;;6.23;2.10;;;1.50;99.90;;;;;;4990373;28;20029;-86
2023/01/22 13:57:49;;;;;;;;;;;1.50;99.90;;;;;;5008565;28;20029;-86
2023/01/22 14:00:29;;;;;;;8.80;2.40;;;1.10;99.90;;;;;;5003158;28;19960;-86
2023/01/22 14:02:56;;;;;;;8.53;2.90;;;1.10;99.90;;;;;;4995982;28;20041;-86
2023/01/22 14:05:27;;;;;;;6.70;2.80;;;1.00;99.90;;;;;;5003991;28;20034;-86
2023/01/22 14:08:10;;;;;;;8.07;2.67;;;0.90;99.90;;;;;;4989288;28;20031;-86
2023/01/22 14:10:37;;;;;;;9.40;3.30;;;0.90;99.90;;;;;;4988345;28;20058;-86
2023/01/22 14:13:06;;;;;;;8.03;2.57;;;0.90;99.90;;;;;;4985224;28;20026;-87
2023/01/22 14:15:32;;;;;;;5.90;2.70;;;0.80;99.90;;;;;;4989315;28;20022;-85
2023/01/22 14:18:16;;;;;;;8.53;2.93;;;0.60;99.90;;;;;;4993040;28;20106;-86
2023/01/22 14:20:45;;;;;;;9.87;3.07;;;1.00;99.90;;;;;;4988984;28;20022;-85
2023/01/22 14:23:11;;;;;;;9.27;2.97;;;1.00;99.90;;;;;;4988694;28;20029;-85
2023/01/22 14:25:38;;;;;;;7.83;2.23;;;0.80;99.90;;;;;;4986043;28;20034;-86
2023/01/22 14:28:03;;;;;;;5.73;2.53;;;1.00;99.90;;;;;;4978172;28;20375;-85
2023/01/22 14:30:29;;;;;;;8.77;2.80;;;1.00;99.90;;;;;;4984598;28;20029;-86
2023/01/22 14:32:55;;;;;;;8.37;2.73;;;1.10;99.90;;;;;;4991403;28;20549;-85
2023/01/22 14:35:25;;;;;;;7.93;3.07;;;1.00;99.90;;;;;;4991849;28;20038;-87
2023/01/22 14:37:52;;;;;;;9.27;2.80;;;1.00;99.90;;;;;;4988085;28;20025;-86
2023/01/22 14:40:19;;;;;;;7.40;2.93;;;0.80;99.90;;;;;;4989167;28;20026;-86
2023/01/22 14:42:50;;;;;;;7.43;2.40;;;1.50;99.90;;;;;;4995604;28;20023;-87
2023/01/22 14:45:18;;;;;;;6.53;2.27;;;1.00;99.90;;;;;;4998311;28;20065;-86
2023/01/22 14:47:48;;;;;;;9.70;3.10;;;1.00;99.90;;;;;;4986492;28;20060;-86
2023/01/22 14:50:15;;;;;;;9.60;2.80;;;1.00;99.90;;;;;;4990699;28;20023;-85
2023/01/22 14:52:40;;;;;;;8.67;3.63;;;1.00;99.90;;;;;;4988732;28;20422;-86
2023/01/22 14:55:13;;;;;;;8.33;3.33;;;1.00;99.90;;;;;;4987831;28;20031;-88
2023/01/22 14:58:06;;;;;;;;;;;;;;;;;;;;;
2023/01/22 15:01:21;;;;;;;7.70;2.83;;;0.60;99.90;;;;;;4989171;28;20789;-89
2023/01/22 15:07:27;;;;;;;7.17;2.60;;;0.90;99.90;;;;;;4975431;28;20033;-87
2023/01/22 15:10:36;;;;;;;9.37;3.00;;;0.80;99.90;;;;;;4987913;28;20041;-87
2023/01/22 15:13:25;;;;;;;;;;;;;;;;;;;;;
2023/01/22 15:16:26;;;;;;;11.83;3.33;;;1.20;99.90;;;;;;4993702;28;20019;-87
2023/01/22 15:25:06;;;;;;;5.50;2.20;;;1.00;99.90;;;;;;4989735;28;20030;-87
2023/01/22 15:28:42;;;;;;;6.23;2.40;;;1.10;99.90;;;;;;4996483;28;20026;-87
2023/01/22 15:31:58;;;;;;;11.50;3.70;;;2.00;99.90;;;;;;4993822;28;20038;-87
2023/01/22 15:34:57;;;;;;;;;;;;;;;;;;;;;
2023/01/22 15:49:01;;;;;;;;;;;;;;;;;;;;;
2023/01/22 15:52:03;;;;;;;8.90;2.80;;;0.70;99.90;;;;;;4950528;28;20116;-87
2023/01/22 15:54:59;;;;;;;10.67;2.53;;;1.30;99.90;;;;;;4987053;28;20158;-87
2023/01/22 15:58:12;;;;;;;10.97;2.97;;;1.60;99.90;;;;;;4986109;28;20513;-87
2023/01/22 16:02:12;;;;;;;6.63;1.88;;;0.70;99.90;;;;;;5013165;28;20026;-87
2023/01/22 16:04:48;;;;;;;10.30;3.30;;;1.40;99.90;;;;;;4981742;28;20076;-88
2023/01/22 16:08:20;;;;;;;;;;;;;;;;;;;;;
2023/01/22 16:11:36;;;;;;;;;;;;;;;;;;;;;
2023/01/22 16:14:28;;;;;;;9.87;2.67;;;1.40;99.90;;;;;;4988791;28;20050;-87
2023/01/22 16:20:50;;;;;;;7.67;2.50;;;1.60;99.90;;;;;;4969773;28;20615;-87
2023/01/22 16:23:42;;;;;;;;;;;;;;;;;;;;;
2023/01/22 16:26:25;;;;;;;8.38;2.72;;;1.20;99.90;;;;;;4992613;28;20026;-88
2023/01/22 16:29:44;;;;;;;;;;;;;;;;;;;;;
2023/01/22 16:32:58;;;;;;;8.83;2.60;;;0.70;99.90;;;;;;4990855;28;20030;-88
2023/01/22 16:39:28;;;;;;;9.10;2.50;;;1.70;99.90;;;;;;4975668;28;20114;-89
2023/01/22 16:42:48;;;;;;;9.20;2.87;;;1.40;99.90;;;;;;4921705;29;20285;-87
2023/01/22 16:52:44;;;;;;;;;;;;;;;;;;;;;
2023/01/22 17:02:30;;;;;;;7.20;2.40;;;1.00;99.90;;;;;;4986710;28;20038;-89
2023/01/22 17:12:59;;;;;;;7.73;2.50;;;1.20;99.90;;;;;;4909178;28;20043;-88
2023/01/22 17:16:26;;;;;;;7.03;2.53;;;0.70;99.90;;;;;;4987973;28;20050;-86
2023/01/22 17:19:35;;;;;;;8.60;3.00;;;1.80;99.90;;;;;;4927527;28;20026;-85
2023/01/22 17:25:47;;;;;;;8.47;2.87;;;0.30;99.90;;;;;;4995271;28;20030;-84
2023/01/22 17:28:46;;;;;;;;;;;;;;;;;;;;;
2023/01/22 17:38:13;;;;;;;9.17;2.63;;;0.90;99.90;;;;;;4989787;28;20058;-90
2023/01/22 18:04:55;;;;;;;;;;;;;;;;;;;;;
2023/01/22 18:11:19;;;;;;;7.90;2.85;;;0.70;99.90;;;;;;4962193;28;20031;-88
2023/01/22 18:14:12;;;;;;;8.23;2.40;;;0.90;99.90;;;;;;4964404;28;20061;-87
2023/01/22 18:20:48;;;;;;;7.73;2.17;;;1.60;99.90;;;;;;4964696;28;20042;-87
2023/01/22 18:23:48;;;;;;;7.73;3.20;;;0.40;99.90;;;;;;4967296;28;20039;-87
2023/01/22 18:26:30;;;;;;;7.37;2.90;;;0.40;99.90;;;;;;4962115;28;20043;-88
2023/01/22 18:29:41;;;;;;;8.05;2.17;;;0.50;99.90;;;;;;4969930;28;20057;-87
2023/01/22 18:33:35;;;;;;;;;;;;;;;;;;;;;
2023/01/22 18:36:13;;;;;;;5.13;1.93;;;1.10;99.90;;;;;;4948831;28;20520;-89
2023/01/22 18:49:13;;;;;;;5.97;2.13;;;1.00;99.90;;;;;;4951365;28;20035;-89
2023/01/22 18:56:03;;;;;;;7.73;2.60;;;-0.90;99.90;;;;;;4954098;28;20058;-90
2023/01/22 18:58:43;;;;;;;7.13;2.80;;;0.60;99.90;;;;;;4961304;28;20126;-88
2023/01/22 19:17:09;;;;;;;;;;;;;;;;;;;;;
2023/01/22 19:24:02;;;;;;;7.00;2.50;;;0.70;99.90;;;;;;4903791;29;20043;-87
2023/01/22 19:26:36;;;;;;;6.20;2.10;;;0.50;99.90;;;;;;4905247;29;20121;-91
2023/01/22 19:29:06;;;;;;;6.90;2.57;;;0.90;99.90;;;;;;4904094;29;20063;-91
2023/01/22 19:31:34;;;;;;;8.37;2.77;;;1.40;99.90;;;;;;4977986;28;20059;-92
2023/01/22 19:34:04;;;;;;;7.83;2.93;;;1.50;99.90;;;;;;4988724;28;20565;-90
2023/01/22 19:36:43;;;;;;;6.93;2.83;;;2.10;99.90;;;;;;4973655;28;20039;-90
2023/01/22 19:39:12;;;;;;;6.97;2.73;;;1.60;99.90;;;;;;4977979;28;20078;-90
2023/01/22 19:41:46;;;;;;;7.57;2.30;;;1.10;99.90;;;;;;4975134;28;20079;-90
2023/01/22 19:44:17;;;;;;;8.50;3.10;;;1.40;99.90;;;;;;4975172;28;20483;-90
2023/01/22 19:46:42;;;;;;;7.27;2.70;;;0.40;99.90;;;;;;4986612;28;20030;-88
2023/01/22 19:49:11;;;;;;;6.03;2.17;;;0.00;99.90;;;;;;4974902;28;20476;-90
2023/01/22 19:51:37;;;;;;;8.90;2.90;;;0.20;99.90;;;;;;4977062;28;20007;-90
2023/01/22 19:54:04;;;;;;;5.90;2.40;;;0.10;99.90;;;;;;4973148;28;20046;-87
2023/01/22 19:56:32;;;;;;;7.23;2.60;;;0.30;99.90;;;;;;4977318;28;20758;-90
2023/01/22 19:59:56;;;;;;;6.53;2.63;;;0.20;99.90;;;;;;4977447;28;20038;-93
2023/01/22 20:03:05;;;;;;;8.50;2.70;;;1.40;99.90;;;;;;4972635;28;20122;-93
2023/01/22 20:05:56;;;;;;;8.13;2.73;;;0.90;99.90;;;;;;4990613;28;20059;-92
2023/01/22 20:08:46;;;;;;;6.43;2.43;;;0.30;99.90;;;;;;4990615;28;20058;-92
2023/01/22 20:11:29;;;;;;;7.63;2.53;;;0.80;99.90;;;;;;4980560;28;20446;-92
2023/01/22 20:13:59;;;;;;;8.77;2.67;;;0.20;99.90;;;;;;4964241;28;20023;-91
2023/01/22 20:16:42;;;;;;;6.87;2.90;;;0.20;99.90;;;;;;4983861;28;20069;-91
2023/01/22 20:19:08;;;;;;;7.83;3.13;;;-0.60;99.90;;;;;;4997023;28;20557;-91
2023/01/22 20:25:47;;;;;;;8.80;2.97;;;0.70;99.90;;;;;;4978109;28;20085;-92
2023/01/22 20:29:11;;;;;;;10.57;2.90;;;0.30;99.90;;;;;;4974919;28;20031;-90
2023/01/22 20:35:49;;;;;;;;;;;;;;;;;;;;;
2023/01/22 20:41:29;;;;;;;9.40;2.67;;;1.50;99.90;;;;;;5413528;23;20066;-90
2023/01/22 20:44:00;;;;;;;7.17;3.07;;;1.00;99.90;;;;;;5014357;28;20487;-89
2023/01/22 20:46:27;;;;;;;9.07;3.27;;;0.30;99.90;;;;;;5010243;28;20018;-88
2023/01/22 20:48:56;;;;;;;8.50;2.77;;;0.20;99.90;;;;;;5011214;28;20068;-89
2023/01/22 20:51:25;;;;;;;7.40;2.30;;;0.20;99.90;;;;;;5002652;28;20027;-88
2023/01/22 20:53:55;;;;;;;8.80;3.20;;;0.20;99.90;;;;;;4999062;28;20022;-89
2023/01/22 20:56:30;;;;;;;7.87;2.60;;;0.30;99.90;;;;;;5004185;28;20394;-89
2023/01/22 20:58:58;;;;;;;9.40;2.63;;;0.30;99.90;;;;;;4997497;28;20026;-88
2023/01/22 21:01:24;;;;;;;7.90;2.70;;;0.10;99.90;;;;;;5018925;28;20026;-89
2023/01/22 21:03:55;;;;;;;9.80;3.93;;;0.30;99.90;;;;;;5002855;28;20034;-89
2023/01/22 21:06:21;;;;;;;7.07;2.70;;;0.30;99.90;;;;;;5001772;28;20019;-88
2023/01/22 21:08:50;;;;;;;7.33;2.63;;;0.30;99.90;;;;;;5004696;28;20022;-89
2023/01/22 21:11:21;;;;;;;8.50;3.00;;;0.30;99.90;;;;;;5006294;28;20131;-89
2023/01/22 21:13:49;;;;;;;7.53;2.77;;;0.30;99.90;;;;;;5002888;28;20034;-88
2023/01/22 21:16:21;;;;;;;11.70;4.10;;;0.30;99.90;;;;;;5000139;28;20026;-89
2023/01/22 21:18:47;;;;;;;;;;;0.30;99.90;;;;;;5001753;28;20546;-89
2023/01/22 21:21:16;;;;;;;7.67;2.37;;;0.30;99.90;;;;;;5009465;28;19953;-88
2023/01/22 21:23:42;;;;;;;7.10;2.73;;;0.30;99.90;;;;;;4994820;28;20030;-89
2023/01/22 21:26:10;;;;;;;10.70;2.77;;;0.30;99.90;;;;;;4996273;28;20686;-88
2023/01/22 21:28:39;;;;;;;8.80;2.57;;;0.30;99.90;;;;;;4992273;28;20022;-88
2023/01/22 21:31:12;;;;;;;6.90;2.57;;;0.30;99.90;;;;;;4993936;28;20022;-89
2023/01/22 21:33:42;;;;;;;6.23;2.37;;;0.30;99.90;;;;;;4994832;28;20022;-88
2023/01/22 21:36:09;;;;;;;6.20;2.60;;;0.30;99.90;;;;;;4993190;28;20463;-89